Time;durP1;ratioP1;P1;durP2;ratioP2;P2;SDS_P1;SDS_P2;PMS_P1;PMS_P2;Temp;Humidity;BMP_temperature;BMP_pressure;BME280_temperature;BME280_humidity;BME280_pressure;Samples;Min_cycle;Max_cycle;Signal;HPM_P1;HPM_P2
2021/12/25 00:00:49;;;;;;;;;47.50;38.50;;;;;11.75;75.23;100175.59;5053044;28;49770;-71
2021/12/25 00:03:17;;;;;;;;;45.50;37.50;;;;;11.73;75.33;100174.72;5052782;28;49696;-67
2021/12/25 00:05:43;;;;;;;;;38.25;34.50;;;;;11.69;75.24;100173.81;5052464;28;50399;-67
2021/12/25 00:08:09;;;;;;;;;40.00;34.50;;;;;11.70;75.09;100180.84;5052807;28;49867;-68
2021/12/25 00:10:34;;;;;;;;;38.00;34.50;;;;;11.71;75.27;100168.56;5052790;28;49636;-70
2021/12/25 00:13:00;;;;;;;;;41.25;37.50;;;;;11.71;75.38;100168.56;5052573;28;49845;-67
2021/12/25 00:15:26;;;;;;;;;46.75;39.00;;;;;11.65;74.85;100148.34;5052434;28;50211;-71
2021/12/25 00:17:51;;;;;;;;;33.50;29.00;;;;;11.32;74.86;100095.56;5052573;28;49694;-67
2021/12/25 00:20:17;;;;;;;;;35.25;32.00;;;;;11.69;75.21;100155.41;5052628;28;49675;-71
2021/12/25 00:22:43;;;;;;;;;26.00;25.00;;;;;11.46;75.27;100117.56;5052722;28;49523;-70
2021/12/25 00:25:08;;;;;;;;;28.50;27.25;;;;;11.53;74.94;100118.50;5052340;28;50925;-69
2021/12/25 00:30:14;;;;;;;;;27.25;25.50;;;;;11.43;74.88;100091.25;5052309;28;49737;-69
2021/12/25 00:32:53;;;;;;;;;30.50;28.25;;;;;11.66;75.16;100122.94;5051515;28;49925;-67
2021/12/25 00:35:19;;;;;;;;;27.25;24.25;;;;;11.64;74.68;100130.81;5051180;28;50435;-71
2021/12/25 00:37:44;;;;;;;;;21.25;20.25;;;;;11.68;74.73;100135.25;5052327;28;49935;-66
2021/12/25 00:40:10;;;;;;;;;28.25;25.50;;;;;11.49;74.83;100098.31;5052282;28;49818;-66
2021/12/25 00:42:36;;;;;;;;;34.00;32.00;;;;;11.66;74.77;100128.19;5052094;28;49943;-69
2021/12/25 00:45:02;;;;;;;;;28.00;26.25;;;;;11.45;74.31;100100.91;5051873;28;49747;-68
2021/12/25 00:47:27;;;;;;;;;28.75;25.50;;;;;11.43;74.14;100099.16;5051886;28;49933;-66
2021/12/25 00:49:53;;;;;;;;;30.50;27.50;;;;;11.55;73.84;100132.50;5052291;28;49889;-67
2021/12/25 00:52:18;;;;;;;;;27.75;25.50;;;;;11.51;73.73;100126.38;5052234;28;49792;-70
2021/12/25 00:54:43;;;;;;;;;25.50;25.00;;;;;11.46;73.87;100134.19;5051969;28;49697;-65
2021/12/25 00:57:09;;;;;;;;;24.00;23.50;;;;;11.28;74.23;100107.78;5051416;28;50091;-67
2021/12/25 00:59:35;;;;;;;;;24.00;24.00;;;;;11.37;73.74;100133.25;5051950;28;50362;-65
2021/12/25 01:02:01;;;;;;;;;30.25;28.50;;;;;11.20;74.01;100116.50;5051816;28;49885;-68
2021/12/25 01:04:26;;;;;;;;;27.50;25.75;;;;;11.30;74.15;100142.00;5051433;28;50399;-65
2021/12/25 01:06:52;;;;;;;;;20.00;18.50;;;;;11.13;74.78;100112.94;5051728;28;49740;-68
2021/12/25 01:09:18;;;;;;;;;29.00;26.50;;;;;11.14;74.37;100120.81;5051858;28;49670;-67
2021/12/25 01:11:46;;;;;;;;;26.25;25.50;;;;;10.94;74.73;100083.00;5051994;28;49811;-69
2021/12/25 01:14:23;;;;;;;;;37.25;34.75;;;;;11.16;74.40;100131.34;5038173;28;50210;-69
2021/12/25 01:24:58;;;;;;;;;25.50;25.00;;;;;11.11;73.86;100156.72;5013453;28;50419;-70
2021/12/25 01:30:18;;;;;;;;;22.25;22.25;;;;;10.80;73.38;100119.63;5040512;28;49686;-64
2021/12/25 01:36:09;;;;;;;;;30.75;29.25;;;;;10.86;73.84;100138.09;5051034;28;50342;-65
2021/12/25 01:41:30;;;;;;;;;25.25;23.25;;;;;10.51;73.58;100095.72;5050875;28;49720;-66
2021/12/25 01:49:24;;;;;;;;;25.75;25.75;;;;;10.66;75.37;100137.00;5050910;28;49843;-71
2021/12/25 01:51:49;;;;;;;;;34.75;30.50;;;;;10.77;75.56;100145.88;5051138;28;49833;-70
2021/12/25 01:54:14;;;;;;;;;27.25;27.00;;;;;10.83;75.37;100153.81;5050567;28;49759;-70
2021/12/25 01:56:40;;;;;;;;;26.25;25.50;;;;;10.76;75.26;100141.50;5050443;28;49883;-69
2021/12/25 01:59:05;;;;;;;;;23.00;22.50;;;;;10.75;75.12;100142.34;5050982;28;49737;-71
2021/12/25 02:01:31;;;;;;;;;26.75;24.25;;;;;10.79;75.26;100143.25;5050856;28;50237;-65
2021/12/25 02:03:57;;;;;;;;;26.00;23.75;;;;;10.91;74.94;100159.16;5050966;28;49844;-66
2021/12/25 02:06:22;;;;;;;;;28.75;25.25;;;;;10.91;74.94;100153.03;5050570;28;50690;-65
2021/12/25 02:08:47;;;;;;;;;26.00;24.50;;;;;10.97;75.54;100166.19;5049830;28;49632;-66
2021/12/25 02:11:13;;;;;;;;;27.00;24.00;;;;;11.02;75.84;100168.00;5050699;28;49700;-65
2021/12/25 02:13:39;;;;;;;;;22.00;21.00;;;;;10.86;75.33;100129.31;5051104;28;49758;-69
2021/12/25 02:16:11;;;;;;;;;18.75;18.75;;;;;11.02;75.65;100154.88;5050567;28;50231;-68
2021/12/25 02:21:26;;;;;;;;;18.00;17.25;;;;;11.15;75.98;100164.63;5050926;28;50061;-66
2021/12/25 02:23:52;;;;;;;;;15.50;14.00;;;;;11.20;75.34;100172.56;5050809;28;50641;-66
2021/12/25 02:26:18;;;;;;;;;19.25;19.25;;;;;11.24;75.10;100168.19;5049126;28;50930;-66
2021/12/25 02:28:44;;;;;;;;;18.00;16.00;;;;;11.27;75.37;100168.22;5050399;28;49808;-67
2021/12/25 02:31:12;;;;;;;;;16.50;16.00;;;;;11.26;75.16;100169.09;5050494;28;49692;-67
2021/12/25 02:33:39;;;;;;;;;16.00;16.00;;;;;11.28;75.43;100164.72;5050538;28;49735;-66
2021/12/25 02:36:09;;;;;;;;;16.50;10.50;;;;;11.23;75.43;100154.19;5050458;28;50650;-66
2021/12/25 02:38:35;;;;;;;;;14.50;14.50;;;;;11.34;74.93;100163.03;5050205;28;49777;-69
2021/12/25 02:41:01;;;;;;;;;17.50;14.75;;;;;11.25;75.24;100155.06;5050377;28;49838;-67
2021/12/25 02:43:26;;;;;;;;;14.50;13.25;;;;;11.23;75.39;100141.03;5050762;28;49980;-66
2021/12/25 02:45:54;;;;;;;;;15.50;13.75;;;;;11.21;75.56;100144.53;5050013;28;50530;-72
2021/12/25 02:48:20;;;;;;;;;12.25;12.25;;;;;11.41;75.13;100162.22;5050318;28;49777;-70
2021/12/25 02:50:46;;;;;;;;;11.75;11.00;;;;;11.42;74.74;100163.09;5050241;28;49543;-67
2021/12/25 02:53:13;;;;;;;;;16.50;11.75;;;;;11.46;74.93;100152.59;5050876;27;49725;-66
2021/12/25 02:55:42;;;;;;;;;13.75;13.75;;;;;11.29;75.03;100127.97;5050030;28;50751;-68
2021/12/25 02:58:08;;;;;;;;;12.00;11.25;;;;;11.50;74.94;100164.03;5050065;28;50303;-66
2021/12/25 03:00:41;;;;;;;;;14.75;13.00;;;;;11.51;75.10;100150.03;5050005;28;49704;-67
2021/12/25 03:03:08;;;;;;;;;15.75;14.00;;;;;11.40;74.76;100133.31;5050192;28;49719;-70
2021/12/25 03:05:35;;;;;;;;;13.75;13.00;;;;;11.53;74.92;100155.28;5050018;28;49741;-68
2021/12/25 03:08:01;;;;;;;;;12.00;11.50;;;;;11.40;74.64;100131.56;5050036;28;49666;-70
2021/12/25 03:10:26;;;;;;;;;16.75;14.00;;;;;11.50;74.87;100145.63;5050111;28;49671;-66
2021/12/25 03:13:04;;;;;;;;;14.00;12.00;;;;;11.55;74.87;100148.28;5049887;28;49704;-67
2021/12/25 03:15:41;;;;;;;;;12.25;11.75;;;;;11.53;74.82;100134.25;5049755;28;49720;-68
2021/12/25 03:18:07;;;;;;;;;12.25;12.25;;;;;11.57;74.93;100150.03;5049943;28;49953;-68
2021/12/25 03:20:33;;;;;;;;;15.25;13.50;;;;;11.23;74.74;100093.75;5053327;28;50036;-66
2021/12/25 03:22:59;;;;;;;;;15.75;14.75;;;;;11.45;74.87;100128.94;5053731;28;49685;-68
2021/12/25 03:25:25;;;;;;;;;13.50;11.50;;;;;11.59;74.90;100155.34;5052973;28;50770;-67
2021/12/25 03:27:51;;;;;;;;;13.75;12.75;;;;;11.59;75.03;100145.72;5052947;28;49728;-67
2021/12/25 03:30:17;;;;;;;;;14.50;14.00;;;;;11.43;75.14;100118.41;5053361;28;49537;-68
2021/12/25 03:32:45;;;;;;;;;14.75;13.25;;;;;11.61;75.00;100143.97;5053686;28;49780;-66
2021/12/25 03:35:10;;;;;;;;;15.75;12.00;;;;;11.57;75.02;100149.16;5053259;28;50736;-67
2021/12/25 03:37:36;;;;;;;;;15.50;14.75;;;;;11.60;74.98;100143.94;5053280;28;49774;-70
2021/12/25 03:40:02;;;;;;;;;16.00;13.25;;;;;11.32;75.13;100108.72;5053296;28;50204;-66
2021/12/25 03:42:27;;;;;;;;;12.50;10.50;;;;;11.06;74.87;100059.47;5052993;28;49932;-65
2021/12/25 03:44:53;;;;;;;;;13.50;11.25;;;;;11.59;74.71;100152.72;5052762;28;50622;-68
2021/12/25 03:47:27;;;;;;;;;10.75;10.75;;;;;11.61;74.80;100153.59;5052917;28;49657;-70
2021/12/25 03:58:09;;;;;;;;;14.50;12.25;;;;;11.61;74.83;100165.00;5052789;28;49816;-68
2021/12/25 04:00:36;;;;;;;;;12.25;12.25;;;;;11.61;74.99;100167.63;5052840;28;49693;-66
2021/12/25 04:03:03;;;;;;;;;19.00;16.75;;;;;11.39;75.23;100132.44;5052862;28;49935;-70
2021/12/25 04:05:32;;;;;;;;;18.25;13.25;;;;;11.53;75.02;100152.66;5052578;28;50315;-69
2021/12/25 04:08:10;;;;;;;;;16.75;16.25;;;;;11.46;75.02;100144.72;5052760;28;49768;-68
2021/12/25 04:10:41;;;;;;;;;18.25;16.25;;;;;11.61;74.83;100169.38;5052975;28;49734;-65
2021/12/25 04:13:10;;;;;;;;;13.50;13.50;;;;;11.56;74.86;100166.69;5052822;28;49877;-67
2021/12/25 04:15:36;;;;;;;;;15.25;13.50;;;;;11.63;75.08;100170.25;5052447;28;49693;-69
2021/12/25 04:18:03;;;;;;;;;18.25;13.50;;;;;11.59;74.99;100155.34;5052441;28;49841;-68
2021/12/25 04:20:29;;;;;;;;;17.75;16.75;;;;;11.64;74.65;100165.00;5052871;28;49970;-68
2021/12/25 04:23:11;;;;;;;;;20.50;16.25;;;;;11.66;74.88;100162.38;5052627;28;49586;-64
2021/12/25 04:25:37;;;;;;;;;21.00;17.25;;;;;11.65;75.09;100165.88;5052136;28;49632;-69
2021/12/25 04:28:20;;;;;;;;;17.50;16.75;;;;;11.67;74.84;100166.75;5052177;28;49758;-68
2021/12/25 04:42:43;;;;;;;;;15.00;15.00;;;;;11.50;75.18;100134.25;5052861;28;49884;-68
2021/12/25 04:50:13;;;;;;;;;17.25;16.50;;;;;11.70;74.95;100165.06;5052018;28;49749;-64
2021/12/25 05:06:04;;;;;;;;;21.50;19.25;;;;;11.70;75.36;100174.69;5052099;28;50095;-64
2021/12/25 05:08:30;;;;;;;;;17.00;15.50;;;;;11.60;75.26;100163.25;5051651;28;50453;-68
2021/12/25 05:10:57;;;;;;;;;16.50;16.50;;;;;11.57;75.32;100152.69;5051449;28;49937;-69
2021/12/25 05:13:22;;;;;;;;;22.00;21.00;;;;;11.53;75.46;100150.03;5051892;28;49760;-68
2021/12/25 05:15:48;;;;;;;;;18.50;17.75;;;;;11.56;75.54;100155.31;5051723;28;49846;-65
2021/12/25 05:18:13;;;;;;;;;20.25;19.00;;;;;11.62;75.08;100163.25;5051454;28;50619;-64
2021/12/25 05:20:39;;;;;;;;;24.75;22.50;;;;;11.67;75.37;100172.03;5051584;28;49638;-68
2021/12/25 05:23:05;;;;;;;;;28.75;22.25;;;;;11.58;75.21;100150.94;5051809;28;49908;-65
2021/12/25 05:25:32;;;;;;;;;21.00;19.50;;;;;11.70;75.16;100172.94;5050374;28;49666;-65
2021/12/25 05:27:59;;;;;;;;;17.00;15.75;;;;;11.66;75.33;100165.88;5051044;28;50551;-65
2021/12/25 05:30:25;;;;;;;;;19.75;18.75;;;;;11.56;75.15;100147.41;5051422;28;49979;-65
2021/12/25 05:32:50;;;;;;;;;22.75;21.00;;;;;11.71;75.21;100173.81;5051532;28;50036;-67
2021/12/25 05:35:16;;;;;;;;;23.75;23.00;;;;;11.71;75.23;100186.97;5051557;28;49834;-66
2021/12/25 05:37:41;;;;;;;;;25.75;20.75;;;;;11.28;75.20;100096.41;5051120;28;50017;-69
2021/12/25 05:40:07;;;;;;;;;20.75;19.25;;;;;11.72;75.58;100180.84;5051326;28;49764;-65
2021/12/25 05:42:32;;;;;;;;;21.50;18.75;;;;;11.30;75.23;100107.81;5051334;28;49802;-67
2021/12/25 05:44:59;;;;;;;;;20.75;18.00;;;;;11.73;75.13;100182.59;5051202;28;49725;-68
2021/12/25 05:47:25;;;;;;;;;24.25;23.00;;;;;11.72;75.17;100175.56;5051162;28;50543;-65
2021/12/25 05:49:50;;;;;;;;;22.50;20.00;;;;;11.60;75.27;100163.25;5049722;28;49667;-64
2021/12/25 05:52:15;;;;;;;;;22.25;21.25;;;;;11.71;75.31;100181.72;5051183;28;49765;-65
2021/12/25 05:54:41;;;;;;;;;17.75;17.75;;;;;11.32;75.35;100116.59;5051156;28;49789;-69
2021/12/25 05:57:06;;;;;;;;;23.25;21.25;;;;;11.68;75.26;100182.56;5050695;28;50280;-67
2021/12/25 05:59:31;;;;;;;;;24.25;22.25;;;;;11.29;75.38;100104.31;5049612;28;49911;-67
2021/12/25 06:01:57;;;;;;;;;24.00;19.25;;;;;11.72;75.56;100181.72;5051157;28;49788;-69
2021/12/25 06:04:22;;;;;;;;;18.75;18.25;;;;;11.64;75.37;100165.00;5051218;28;49946;-65
2021/12/25 06:06:47;;;;;;;;;21.00;18.25;;;;;11.57;75.33;100151.78;5050822;28;49739;-68
2021/12/25 06:09:13;;;;;;;;;17.00;16.25;;;;;11.76;75.29;100183.47;5050717;28;49713;-70
2021/12/25 06:11:39;;;;;;;;;27.50;23.25;;;;;11.71;75.69;100173.81;5050771;28;49788;-71
2021/12/25 06:14:10;;;;;;;;;26.25;24.00;;;;;11.75;75.34;100176.47;5050941;28;49832;-64
2021/12/25 06:16:36;;;;;;;;;23.00;20.75;;;;;11.65;75.52;100163.25;5050640;28;50789;-66
2021/12/25 06:19:03;;;;;;;;;29.00;21.50;;;;;11.66;75.54;100160.63;5050814;28;49672;-69
2021/12/25 06:21:28;;;;;;;;;25.00;25.00;;;;;11.75;75.38;100167.69;5052437;28;49939;-66
2021/12/25 06:23:54;;;;;;;;;27.25;22.75;;;;;11.78;75.35;100177.38;5051033;28;49631;-66
2021/12/25 06:26:20;;;;;;;;;19.00;19.00;;;;;11.50;75.54;100137.75;5049996;28;49889;-75
2021/12/25 06:28:45;;;;;;;;;27.00;20.75;;;;;11.67;75.50;100182.53;5065778;28;50070;-76
2021/12/25 06:31:11;;;;;;;;;26.50;22.75;;;;;11.79;75.44;100187.03;5049237;28;49670;-68
2021/12/25 06:33:36;;;;;;;;;19.75;18.25;;;;;11.77;75.59;100194.88;5050599;28;49747;-68
2021/12/25 06:36:01;;;;;;;;;22.00;19.00;;;;;11.78;75.47;100191.41;5053104;28;49855;-66
2021/12/25 06:38:26;;;;;;;;;18.00;18.00;;;;;11.78;75.90;100196.66;5050483;28;49680;-68
2021/12/25 06:40:52;;;;;;;;;20.75;19.00;;;;;11.46;75.40;100143.84;5050357;28;49629;-66
2021/12/25 06:43:17;;;;;;;;;21.50;20.25;;;;;11.79;75.39;100200.19;5050655;28;49972;-69
2021/12/25 06:45:42;;;;;;;;;18.00;18.00;;;;;11.53;75.61;100155.28;5051609;28;50051;-65
2021/12/25 06:48:08;;;;;;;;;24.25;21.50;;;;;11.17;75.71;100104.19;5055253;28;49796;-66
2021/12/25 06:50:33;;;;;;;;;18.50;16.25;;;;;11.67;75.52;100187.78;5052284;28;49737;-68
2021/12/25 06:52:59;;;;;;;;;22.75;17.50;;;;;11.38;75.99;100142.91;5050592;28;49815;-66
2021/12/25 06:55:24;;;;;;;;;18.75;18.00;;;;;11.80;75.40;100194.97;5049452;28;50389;-68
2021/12/25 06:57:57;;;;;;;;;18.50;16.25;;;;;11.44;74.90;100141.19;5049888;28;50000;-69
2021/12/25 07:00:24;;;;;;;;;15.00;13.00;;;;;11.60;75.71;100183.38;5039009;28;49757;-69
2021/12/25 07:02:50;;;;;;;;;20.00;17.75;;;;;11.60;75.24;100160.59;5050259;28;50283;-68
2021/12/25 07:05:15;;;;;;;;;20.25;18.75;;;;;11.71;75.47;100176.44;5052010;28;49865;-67
2021/12/25 07:07:41;;;;;;;;;19.75;18.75;;;;;11.68;75.45;100182.56;5050262;28;49755;-68
2021/12/25 07:10:07;;;;;;;;;18.25;16.25;;;;;11.66;75.44;100176.41;5048704;28;49686;-66
2021/12/25 07:12:36;;;;;;;;;19.25;16.50;;;;;11.57;75.47;100154.44;5051741;28;50241;-67
2021/12/25 07:15:06;;;;;;;;;17.00;15.50;;;;;11.66;75.23;100173.78;5048421;28;51983;-67
2021/12/25 07:17:32;;;;;;;;;18.00;17.75;;;;;11.80;75.40;100209.84;5045734;28;49872;-68
2021/12/25 07:19:58;;;;;;;;;20.50;18.50;;;;;11.80;75.73;100202.84;5048028;28;49814;-66
2021/12/25 07:22:23;;;;;;;;;19.50;17.50;;;;;11.80;75.64;100204.59;5050077;28;49547;-68
2021/12/25 07:24:48;;;;;;;;;19.00;17.50;;;;;11.81;75.16;100201.97;5049479;28;50318;-67
2021/12/25 07:27:14;;;;;;;;;22.25;19.25;;;;;11.69;75.37;100183.47;5049724;28;49682;-67
2021/12/25 07:29:40;;;;;;;;;20.50;20.50;;;;;11.79;75.35;100201.06;5049617;28;49679;-67
2021/12/25 07:32:05;;;;;;;;;23.75;21.25;;;;;11.61;75.26;100188.66;5051245;28;49847;-65
2021/12/25 07:34:32;;;;;;;;;25.25;21.00;;;;;11.80;75.50;100196.72;5049586;28;49955;-65
2021/12/25 07:36:57;;;;;;;;;20.75;19.25;;;;;11.69;75.31;100181.72;5051101;28;50081;-64
2021/12/25 07:39:23;;;;;;;;;20.75;18.75;;;;;11.73;75.70;100204.50;5052349;28;49597;-64
2021/12/25 07:41:48;;;;;;;;;15.75;15.75;;;;;11.70;75.57;100193.09;5048237;28;49990;-67
2021/12/25 07:44:13;;;;;;;;;15.00;14.00;;;;;11.65;75.51;100187.78;5049410;28;49862;-64
2021/12/25 07:46:39;;;;;;;;;19.75;18.75;;;;;11.57;75.29;100175.47;5049813;28;49653;-65
2021/12/25 07:49:05;;;;;;;;;17.00;16.50;;;;;11.76;75.90;100206.28;5049770;28;49720;-65
2021/12/25 07:51:30;;;;;;;;;28.00;23.50;;;;;11.76;75.60;100203.63;5049726;28;49605;-65
2021/12/25 07:53:56;;;;;;;;;18.50;18.00;;;;;11.62;75.79;100184.28;5049308;28;50546;-65
2021/12/25 07:56:25;;;;;;;;;21.50;20.25;;;;;11.65;75.65;100186.91;5049183;28;49780;-66
2021/12/25 07:58:51;;;;;;;;;19.75;19.75;;;;;11.78;75.75;100209.81;5050257;28;50508;-65
2021/12/25 08:01:17;;;;;;;;;19.50;17.75;;;;;11.81;75.61;100209.88;5049828;28;49813;-65
2021/12/25 08:03:45;;;;;;;;;18.00;17.50;;;;;11.55;75.72;100172.81;5049195;28;49833;-74
2021/12/25 08:06:10;;;;;;;;;23.25;21.00;;;;;11.28;75.47;100120.03;5050172;28;49679;-76
2021/12/25 08:08:36;;;;;;;;;17.75;16.75;;;;;11.61;75.70;100179.88;5051142;28;50317;-70
2021/12/25 08:11:01;;;;;;;;;20.00;17.00;;;;;11.82;75.73;100218.63;5052816;28;49774;-68
2021/12/25 08:13:26;;;;;;;;;21.50;18.25;;;;;11.59;75.63;100181.63;5052639;28;50845;-67
2021/12/25 08:15:52;;;;;;;;;20.50;20.25;;;;;10.67;75.82;100027.63;5052304;28;49756;-69
2021/12/25 08:18:17;;;;;;;;;19.75;18.75;;;;;11.84;75.44;100225.66;5051114;28;49864;-66
2021/12/25 08:20:43;;;;;;;;;18.50;18.50;;;;;11.85;75.85;100226.53;5044821;28;50162;-65
2021/12/25 08:23:08;;;;;;;;;20.75;19.25;;;;;11.79;75.65;100211.56;5055575;28;50505;-76
2021/12/25 08:25:34;;;;;;;;;30.25;22.25;;;;;10.80;75.49;100051.38;5046478;28;49592;-73
2021/12/25 08:28:01;;;;;;;;;21.50;18.25;;;;;10.99;75.37;100094.41;5043027;28;50474;-73
2021/12/25 08:30:27;;;;;;;;;20.50;19.75;;;;;10.70;75.62;100018.03;5038757;28;50174;-75
2021/12/25 08:32:55;;;;;;;;;21.00;18.50;;;;;11.82;75.66;100243.19;5049522;28;49815;-80
2021/12/25 08:35:22;;;;;;;;;27.00;24.50;;;;;11.83;75.50;100220.38;5048134;28;49700;-74
2021/12/25 08:37:48;;;;;;;;;23.25;21.25;;;;;10.49;75.53;99991.59;5050987;28;50004;-74
2021/12/25 08:40:14;;;;;;;;;19.50;18.75;;;;;11.71;75.35;100181.72;5050728;28;49995;-81
2021/12/25 08:42:47;;;;;;;;;23.75;21.00;;;;;11.52;75.06;100164.03;5058976;28;51913;-78
2021/12/25 08:45:38;;;;;;;;;22.00;20.50;;;;;11.96;75.33;100225.72;5052321;28;49719;-73
2021/12/25 08:48:00;;;;;;;;;24.50;22.50;;;;;10.79;75.06;100049.63;5048711;28;49838;-71
2021/12/25 08:50:26;;;;;;;;;26.75;23.00;;;;;11.82;74.35;100229.16;5047030;28;49752;-76
2021/12/25 08:52:52;;;;;;;;;24.00;20.25;;;;;10.47;74.19;99975.84;5041020;28;51696;-75
2021/12/25 08:55:18;;;;;;;;;20.25;18.25;;;;;10.41;74.49;99965.28;5051368;28;49802;-73
2021/12/25 08:57:43;;;;;;;;;19.25;19.00;;;;;11.76;74.20;100207.16;5043410;28;49902;-72
2021/12/25 09:00:10;;;;;;;;;20.00;18.75;;;;;11.01;74.33;100063.81;5047810;28;50241;-75
2021/12/25 09:02:35;;;;;;;;;21.75;19.00;;;;;12.01;74.03;100267.88;5050741;28;49689;-83
2021/12/25 09:05:01;;;;;;;;;21.00;18.00;;;;;11.12;74.55;100082.28;5049067;28;49589;-80
2021/12/25 09:07:26;;;;;;;;;23.75;21.00;;;;;12.07;73.51;100267.03;5051347;28;50091;-89
2021/12/25 09:09:52;;;;;;;;;21.00;21.00;;;;;10.53;74.14;99968.03;5041887;28;49738;-73
2021/12/25 09:12:19;;;;;;;;;24.00;22.25;;;;;11.93;73.65;100209.94;5032155;28;50388;-73
2021/12/25 09:14:45;;;;;;;;;22.75;20.00;;;;;12.11;73.86;100243.38;5035747;28;49713;-75
2021/12/25 09:17:11;;;;;;;;;24.50;21.50;;;;;11.87;74.36;100198.47;5040271;28;49876;-80
2021/12/25 09:19:36;;;;;;;;;23.75;21.75;;;;;11.57;74.14;100178.09;5038227;28;49765;-83
2021/12/25 09:22:03;;;;;;;;;22.00;21.25;;;;;12.04;73.95;100218.78;5033824;28;49902;-84
2021/12/25 09:24:28;;;;;;;;;23.50;22.75;;;;;11.76;74.01;100158.94;5032180;28;49791;-79
2021/12/25 09:26:54;;;;;;;;;23.75;22.75;;;;;11.61;73.43;100140.44;5032845;28;50081;-73
2021/12/25 09:29:19;;;;;;;;;26.50;24.50;;;;;11.04;73.21;100034.06;5051604;28;50002;-76
2021/12/25 09:31:45;;;;;;;;;22.25;18.75;;;;;11.89;73.62;100175.72;5049894;28;50444;-70
2021/12/25 09:34:11;;;;;;;;;25.75;20.75;;;;;11.43;73.53;100097.41;5047970;28;49986;-70
2021/12/25 09:36:36;;;;;;;;;24.75;24.00;;;;;11.97;73.82;100205.59;5048601;28;49905;-74
2021/12/25 09:39:04;;;;;;;;;20.25;18.75;;;;;12.27;73.48;100232.06;5057818;28;50122;-70
2021/12/25 09:41:30;;;;;;;;;30.50;26.25;;;;;10.94;72.99;99987.59;5053990;28;49835;-71
2021/12/25 09:43:56;;;;;;;;;24.00;22.50;;;;;12.22;72.81;100230.28;5051337;28;49599;-81
2021/12/25 09:46:22;;;;;;;;;24.00;20.50;;;;;12.48;73.39;100262.91;5046817;28;49832;-71
2021/12/25 09:48:50;;;;;;;;;19.00;19.00;;;;;12.40;72.77;100242.66;5050373;28;49935;-72
2021/12/25 09:51:16;;;;;;;;;22.50;20.50;;;;;12.36;72.89;100231.25;5039171;28;50752;-69
2021/12/25 09:53:42;;;;;;;;;26.75;24.50;;;;;12.56;72.98;100255.91;5049782;28;49842;-65
2021/12/25 09:56:08;;;;;;;;;23.25;19.00;;;;;12.49;72.79;100229.53;5042042;28;50088;-74
2021/12/25 09:58:33;;;;;;;;;19.00;17.75;;;;;12.69;72.08;100242.78;5046270;28;49939;-69
2021/12/25 10:00:59;;;;;;;;;22.00;20.50;;;;;12.85;72.37;100257.78;5048741;28;49822;-65
2021/12/25 10:03:40;;;;;;;;;22.50;20.25;;;;;12.90;72.63;100256.91;5050434;28;49624;-76
2021/12/25 10:06:06;;;;;;;;;23.75;18.75;;;;;13.00;71.97;100276.25;5050391;28;49701;-75
2021/12/25 10:08:36;;;;;;;;;25.00;20.75;;;;;12.22;71.06;100136.41;5042273;28;49923;-73
2021/12/25 10:11:02;;;;;;;;;19.75;17.50;;;;;12.19;71.25;100128.53;5049981;28;50599;-71
2021/12/25 10:13:39;;;;;;;;;24.75;22.00;;;;;12.94;70.64;100220.94;5045511;28;50061;-71
2021/12/25 10:16:20;;;;;;;;;23.50;19.75;;;;;12.21;70.54;100124.16;5045348;28;49835;-73
2021/12/25 10:18:46;;;;;;;;;22.50;21.25;;;;;12.96;71.42;100242.91;5043698;28;50204;-72
2021/12/25 10:21:27;;;;;;;;;22.25;21.50;;;;;12.06;70.73;100092.50;5036060;28;50756;-76
2021/12/25 10:24:10;;;;;;;;;16.00;12.25;;;;;12.98;71.29;100256.94;5049440;28;49963;-73
2021/12/25 10:26:38;;;;;;;;;20.25;18.25;;;;;12.68;71.45;100201.53;5043517;28;49318;-69
2021/12/25 10:29:21;;;;;;;;;20.75;19.00;;;;;12.18;71.12;100112.75;5041407;28;49875;-72
2021/12/25 10:31:49;;;;;;;;;21.75;20.25;;;;;12.26;71.47;100132.94;5047702;28;51336;-69
2021/12/25 10:34:17;;;;;;;;;20.00;18.00;;;;;12.92;71.39;100222.66;5045888;28;49772;-72
2021/12/25 10:36:45;;;;;;;;;20.00;19.50;;;;;12.58;71.09;100153.22;5043370;28;49673;-75
2021/12/25 10:39:16;;;;;;;;;21.00;17.50;;;;;11.94;70.99;100051.25;5049312;28;49849;-75
2021/12/25 10:42:15;;;;;;;;;19.25;17.00;;;;;13.08;71.02;100223.59;5056126;28;49696;-79
2021/12/25 10:44:50;;;;;;;;;23.00;21.75;;;;;12.44;70.88;100094.38;5052201;28;49364;-84
2021/12/25 10:47:21;;;;;;;;;20.75;20.25;;;;;13.40;70.53;100248.25;5042218;28;49792;-76
2021/12/25 10:50:09;;;;;;;;;16.25;15.50;;;;;12.55;70.21;100092.69;5061648;28;50088;-77
2021/12/25 10:52:42;;;;;;;;;17.75;17.25;;;;;13.44;70.41;100255.31;5051877;28;51563;-80
2021/12/25 10:55:17;;;;;;;;;17.75;15.50;;;;;13.48;70.27;100243.00;5062225;28;49480;-75
2021/12/25 10:57:52;;;;;;;;;15.50;15.25;;;;;13.30;70.00;100237.72;5060632;28;49834;-83
2021/12/25 11:00:21;;;;;;;;;8.75;8.75;;;;;13.60;69.35;100236.84;5051064;28;49768;-80
2021/12/25 11:02:58;;;;;;;;;15.50;14.25;;;;;12.42;69.51;100060.16;5065518;28;49554;-82
2021/12/25 11:05:26;;;;;;;;;14.00;14.00;;;;;13.65;69.45;100230.72;5065691;28;49834;-76
2021/12/25 11:08:03;;;;;;;;;21.00;19.25;;;;;13.33;69.71;100177.97;5055349;28;49754;-74
2021/12/25 11:10:30;;;;;;;;;19.25;16.25;;;;;12.80;69.18;100102.34;5063683;28;49261;-73
2021/12/25 11:12:56;;;;;;;;;17.00;15.50;;;;;13.41;68.54;100185.88;5066581;28;49401;-77
2021/12/25 11:15:25;;;;;;;;;19.00;17.25;;;;;12.30;68.89;99955.75;5067233;28;49737;-76
2021/12/25 11:17:54;;;;;;;;;19.00;15.75;;;;;12.40;68.56;99971.53;5060067;28;49757;-70
2021/12/25 11:20:57;;;;;;;;;21.25;17.75;;;;;13.12;68.93;100090.94;5059679;28;49685;-85
2021/12/25 11:23:28;;;;;;;;;16.75;16.00;;;;;13.46;68.41;100184.13;5050363;28;50343;-80
2021/12/25 11:25:53;;;;;;;;;17.25;14.00;;;;;13.91;68.10;100240.38;5065146;28;49475;-72
2021/12/25 11:28:18;;;;;;;;;15.25;15.25;;;;;13.71;68.11;100180.59;5065057;28;49705;-76
2021/12/25 11:30:49;;;;;;;;;19.25;12.00;;;;;12.83;68.41;100023.31;5060474;28;49763;-77
2021/12/25 11:33:16;;;;;;;;;19.25;17.00;;;;;13.93;68.34;100214.88;5054354;28;51864;-77
2021/12/25 11:35:41;;;;;;;;;15.25;15.00;;;;;13.13;67.47;100074.28;5067506;28;49389;-83
2021/12/25 11:38:09;;;;;;;;;19.75;19.75;;;;;13.45;68.39;100104.16;5059963;28;49575;-78
2021/12/25 11:40:40;;;;;;;;;22.00;17.50;;;;;13.26;68.23;100065.50;5066468;28;50038;-81
2021/12/25 11:43:05;;;;;;;;;13.25;13.25;;;;;13.17;67.15;100045.28;5059946;28;51571;-73
2021/12/25 11:45:37;;;;;;;;;17.75;16.50;;;;;14.29;66.83;100195.44;5064107;28;49577;-74
2021/12/25 11:48:20;;;;;;;;;21.25;19.75;;;;;14.37;66.07;100192.72;5059875;28;49394;-77
2021/12/25 11:50:49;;;;;;;;;22.00;18.75;;;;;14.38;65.94;100182.19;5070777;28;49845;-79
2021/12/25 11:53:40;;;;;;;;;18.25;18.25;;;;;14.06;67.27;100126.84;5062360;28;50484;-79
2021/12/25 11:58:50;;;;;;;;;20.75;20.75;;;;;14.44;66.62;100202.41;5058343;28;49605;-74
2021/12/25 12:01:20;;;;;;;;;23.75;20.00;;;;;12.48;66.97;99873.28;5054324;28;49637;-82
2021/12/25 12:04:11;;;;;;;;;24.25;20.00;;;;;14.47;67.09;100184.81;5064117;28;50668;-81
2021/12/25 12:06:45;;;;;;;;;24.50;20.25;;;;;14.48;67.00;100183.06;5060084;28;49869;-77
2021/12/25 12:09:19;;;;;;;;;23.00;21.00;;;;;13.57;65.93;100018.84;5059462;28;49933;-77
2021/12/25 12:12:14;;;;;;;;;16.75;14.25;;;;;14.48;66.50;100181.31;5060364;28;49824;-78
2021/12/25 12:14:39;;;;;;;;;24.25;21.25;;;;;14.48;66.65;100183.06;5053643;28;51974;-72
2021/12/25 12:17:26;;;;;;;;;20.25;18.50;;;;;14.50;65.97;100183.94;5069037;28;49454;-74
2021/12/25 12:19:54;;;;;;;;;20.50;20.25;;;;;14.49;65.83;100175.13;5062099;28;49501;-78
2021/12/25 12:27:31;;;;;;;;;30.50;28.00;;;;;14.43;65.42;100179.53;5049010;28;49619;-78